createdAt,value
2022-12-02T00:00:25.980Z,5.15
2022-12-02T00:02:54.282Z,4.80
2022-12-02T00:05:39.102Z,6.63
2022-12-02T00:08:37.237Z,5.75
2022-12-02T00:11:08.639Z,4.97
2022-12-02T00:13:42.300Z,4.78
2022-12-02T00:16:19.562Z,4.55
2022-12-02T00:18:46.273Z,4.88
2022-12-02T00:21:13.002Z,4.60
2022-12-02T00:23:39.653Z,6.30
2022-12-02T00:26:06.512Z,4.97
2022-12-02T00:28:33.237Z,4.82
2022-12-02T00:30:59.892Z,6.38
2022-12-02T00:33:26.545Z,4.70
2022-12-02T00:35:53.178Z,5.85
2022-12-02T00:38:19.805Z,8.00
2022-12-02T00:40:46.480Z,6.03
2022-12-02T00:43:31.890Z,4.45
2022-12-02T00:46:17.451Z,4.63
2022-12-02T00:48:44.189Z,5.40
2022-12-02T00:51:10.787Z,5.07
2022-12-02T00:53:37.384Z,4.95
2022-12-02T00:56:04.123Z,5.80
2022-12-02T00:58:30.784Z,4.45
2022-12-02T01:00:57.676Z,4.28
2022-12-02T01:03:24.409Z,3.85
2022-12-02T01:05:51.201Z,4.38
2022-12-02T01:08:18.036Z,4.72
2022-12-02T01:10:44.683Z,4.60
2022-12-02T01:13:11.421Z,4.78
2022-12-02T01:15:38.123Z,4.65
2022-12-02T01:18:04.744Z,6.45
2022-12-02T01:20:31.410Z,5.60
2022-12-02T01:22:58.153Z,5.40
2022-12-02T01:25:24.887Z,6.13
2022-12-02T01:27:51.646Z,6.53
2022-12-02T01:30:18.482Z,5.32
2022-12-02T01:32:45.212Z,5.68
2022-12-02T01:35:12.040Z,5.80
2022-12-02T01:37:38.651Z,7.25
2022-12-02T01:40:06.727Z,4.82
2022-12-02T01:42:33.633Z,6.47
2022-12-02T01:45:00.584Z,6.18
2022-12-02T01:47:27.418Z,5.13
2022-12-02T01:49:54.489Z,6.28
2022-12-02T01:52:21.602Z,5.70
2022-12-02T01:54:48.331Z,5.72
2022-12-02T01:57:15.634Z,5.78
2022-12-02T01:59:43.616Z,5.82
2022-12-02T02:02:30.266Z,6.05
2022-12-02T02:05:01.342Z,4.68
2022-12-02T02:07:28.541Z,6.07
2022-12-02T02:09:55.787Z,5.45
2022-12-02T02:12:22.850Z,5.55
2022-12-02T02:14:49.841Z,6.22
2022-12-02T02:17:16.690Z,6.07
2022-12-02T02:19:44.285Z,5.75
2022-12-02T02:22:23.889Z,5.55
2022-12-02T02:24:50.978Z,5.32
2022-12-02T02:27:18.036Z,5.65
2022-12-02T02:29:44.854Z,5.25
2022-12-02T02:32:11.544Z,5.95
2022-12-02T02:34:38.351Z,5.80
2022-12-02T02:37:05.223Z,5.53
2022-12-02T02:39:32.113Z,5.15
2022-12-02T02:41:59.033Z,5.53
2022-12-02T02:44:26.379Z,4.85
2022-12-02T02:46:53.212Z,5.28
2022-12-02T02:49:20.413Z,6.30
2022-12-02T02:51:47.275Z,7.38
2022-12-02T02:54:14.551Z,4.93
2022-12-02T02:56:41.385Z,4.93
2022-12-02T02:59:13.626Z,6.22
2022-12-02T03:01:40.823Z,4.35
2022-12-02T03:04:10.753Z,5.03
2022-12-02T03:06:38.458Z,5.72
2022-12-02T03:09:06.774Z,4.70
2022-12-02T03:11:34.257Z,4.75
2022-12-02T03:14:01.888Z,5.07
2022-12-02T03:16:28.819Z,5.00
2022-12-02T03:18:56.127Z,4.93
2022-12-02T03:21:23.438Z,4.53
2022-12-02T03:23:51.513Z,4.47
2022-12-02T03:26:18.317Z,4.72
2022-12-02T03:28:45.763Z,5.35
2022-12-02T03:31:13.315Z,6.53
2022-12-02T03:33:40.841Z,5.43
2022-12-02T03:36:09.442Z,6.13
2022-12-02T03:38:36.689Z,5.10
2022-12-02T03:41:05.196Z,3.92
2022-12-02T03:43:32.142Z,5.38
2022-12-02T03:45:59.228Z,4.70
2022-12-02T03:48:26.284Z,4.45
2022-12-02T03:50:53.938Z,4.05
2022-12-02T03:53:21.917Z,4.40
2022-12-02T03:55:49.287Z,4.07
2022-12-02T03:58:16.028Z,5.13
2022-12-02T04:00:42.713Z,5.85
2022-12-02T04:03:09.528Z,4.95
2022-12-02T04:05:36.348Z,4.50
2022-12-02T04:08:03.272Z,5.28
2022-12-02T04:10:30.107Z,5.05
2022-12-02T04:12:56.905Z,4.55
2022-12-02T04:15:23.532Z,5.05
2022-12-02T04:17:50.295Z,5.53
2022-12-02T04:20:16.972Z,5.57
2022-12-02T04:22:43.556Z,4.90
2022-12-02T04:25:10.175Z,4.70
2022-12-02T04:27:36.899Z,5.50
2022-12-02T04:30:04.322Z,6.70
2022-12-02T04:32:30.923Z,3.80
2022-12-02T04:34:57.569Z,5.63
2022-12-02T04:37:24.285Z,4.70
2022-12-02T04:39:50.885Z,4.93
2022-12-02T04:42:20.359Z,6.35
2022-12-02T04:44:46.974Z,5.25
2022-12-02T04:47:13.612Z,4.13
2022-12-02T04:49:40.222Z,4.70
2022-12-02T04:52:06.955Z,4.32
2022-12-02T04:54:33.595Z,4.97
2022-12-02T04:57:00.277Z,4.70
2022-12-02T04:59:26.999Z,4.65
2022-12-02T05:01:53.717Z,4.78
2022-12-02T05:04:20.383Z,4.10
2022-12-02T05:06:47.068Z,3.97
2022-12-02T05:09:13.758Z,4.60
2022-12-02T05:11:40.522Z,6.53
2022-12-02T05:14:07.280Z,4.35
2022-12-02T05:16:34.065Z,6.03
2022-12-02T05:19:00.701Z,5.15
2022-12-02T05:21:27.358Z,4.05
2022-12-02T05:23:54.014Z,4.68
2022-12-02T05:26:20.687Z,4.50
2022-12-02T05:28:47.445Z,4.35
2022-12-02T05:31:14.213Z,4.93
2022-12-02T05:33:40.845Z,5.30
2022-12-02T05:36:09.042Z,6.10
2022-12-02T05:38:35.733Z,4.22
2022-12-02T05:41:02.619Z,5.25
2022-12-02T05:43:37.135Z,4.75
2022-12-02T05:46:11.039Z,4.50
2022-12-02T05:48:38.138Z,4.35
2022-12-02T05:51:10.418Z,4.90
2022-12-02T05:53:39.379Z,5.10
2022-12-02T05:56:11.166Z,4.72
2022-12-02T05:58:40.856Z,5.28
2022-12-02T06:01:36.708Z,5.88
2022-12-02T06:04:03.697Z,5.13
2022-12-02T06:06:33.528Z,5.88
2022-12-02T06:09:00.488Z,5.18
2022-12-02T06:11:35.304Z,4.88
2022-12-02T06:14:06.020Z,7.05
2022-12-02T06:16:32.902Z,5.10
2022-12-02T06:19:00.624Z,5.85
2022-12-02T06:21:27.791Z,5.82
2022-12-02T06:23:57.211Z,5.72
2022-12-02T06:26:24.163Z,6.20
2022-12-02T06:29:00.030Z,5.45
2022-12-02T06:31:34.440Z,6.43
2022-12-02T06:34:19.143Z,4.33
2022-12-02T06:36:45.811Z,4.95
2022-12-02T06:39:20.701Z,5.43
2022-12-02T06:41:48.028Z,5.97
2022-12-02T06:44:44.180Z,7.03
2022-12-02T06:47:32.772Z,6.38
2022-12-02T06:50:05.550Z,6.10
2022-12-02T06:52:45.166Z,6.50
2022-12-02T06:55:32.490Z,6.32
2022-12-02T06:58:23.028Z,4.93
2022-12-02T07:00:49.764Z,6.88
2022-12-02T07:03:34.535Z,5.25
2022-12-02T07:06:13.861Z,6.25
2022-12-02T07:08:40.516Z,6.88
2022-12-02T07:11:43.271Z,5.60
2022-12-02T07:14:35.291Z,6.32
2022-12-02T07:17:17.169Z,6.03
2022-12-02T07:19:45.311Z,6.43
2022-12-02T07:22:14.946Z,5.38
2022-12-02T07:24:42.261Z,5.38
2022-12-02T07:27:29.799Z,5.93
2022-12-02T07:29:56.801Z,5.95
2022-12-02T07:32:23.969Z,4.10
2022-12-02T07:34:51.011Z,6.10
2022-12-02T07:37:18.048Z,5.75
2022-12-02T07:39:44.698Z,5.03
2022-12-02T07:42:11.431Z,5.78
2022-12-02T07:44:40.899Z,6.38
2022-12-02T07:47:08.005Z,6.75
2022-12-02T07:49:34.703Z,4.35
2022-12-02T07:52:01.350Z,5.50
2022-12-02T07:54:27.928Z,5.57
2022-12-02T07:56:54.572Z,5.60
2022-12-02T07:59:21.254Z,5.40
2022-12-02T08:01:48.153Z,4.63
2022-12-02T08:04:15.083Z,5.55
2022-12-02T08:06:41.868Z,6.57
2022-12-02T08:09:09.646Z,6.90
2022-12-02T08:11:36.453Z,6.07
2022-12-02T08:14:03.259Z,6.45
2022-12-02T08:16:30.036Z,6.60
2022-12-02T08:18:56.707Z,6.82
2022-12-02T08:21:23.421Z,8.40
2022-12-02T08:23:50.128Z,5.03
2022-12-02T08:26:16.722Z,8.63
2022-12-02T08:28:43.426Z,7.68
2022-12-02T08:31:10.161Z,6.10
2022-12-02T08:33:36.879Z,6.88
2022-12-02T08:36:04.514Z,6.38
2022-12-02T08:38:31.142Z,5.60
2022-12-02T08:40:58.052Z,7.47
2022-12-02T08:43:24.704Z,6.43
2022-12-02T08:45:51.434Z,6.95
2022-12-02T08:48:18.670Z,7.55
2022-12-02T08:50:45.470Z,7.55
2022-12-02T08:53:12.253Z,7.13
2022-12-02T08:55:39.228Z,5.50
2022-12-02T08:58:05.885Z,7.55
2022-12-02T09:00:38.532Z,7.35
2022-12-02T09:03:06.699Z,7.15
2022-12-02T09:05:34.107Z,8.57
2022-12-02T09:08:00.912Z,8.32
2022-12-02T09:10:27.812Z,7.57
2022-12-02T09:12:54.525Z,7.22
2022-12-02T09:15:21.671Z,9.02
2022-12-02T09:17:49.239Z,6.57
2022-12-02T09:20:17.277Z,6.75
2022-12-02T09:22:47.200Z,8.07
2022-12-02T09:25:14.579Z,7.60
2022-12-02T09:27:41.903Z,7.43
2022-12-02T09:30:09.556Z,7.57
2022-12-02T09:32:36.437Z,8.80
2022-12-02T09:35:03.466Z,8.85
2022-12-02T09:37:30.287Z,7.50
2022-12-02T09:39:57.234Z,6.72
2022-12-02T09:42:24.153Z,7.25
2022-12-02T09:44:51.104Z,6.43
2022-12-02T09:47:19.387Z,6.85
2022-12-02T09:49:46.301Z,7.68
2022-12-02T09:52:15.646Z,7.32
2022-12-02T09:54:43.091Z,6.55
2022-12-02T09:57:11.665Z,7.20
2022-12-02T09:59:39.353Z,9.27
2022-12-02T10:02:19.242Z,7.03
2022-12-02T10:04:46.029Z,7.80
2022-12-02T10:07:12.714Z,7.07
2022-12-02T10:09:39.795Z,10.02
2022-12-02T10:12:09.706Z,7.63
2022-12-02T10:14:36.478Z,7.13
2022-12-02T10:17:19.155Z,8.23
2022-12-02T10:19:46.752Z,6.68
2022-12-02T10:22:19.008Z,6.95
2022-12-02T10:24:46.334Z,9.25
2022-12-02T10:27:30.878Z,8.63
2022-12-02T10:30:17.308Z,7.28
2022-12-02T10:32:57.070Z,6.68
2022-12-02T10:35:23.717Z,7.43
2022-12-02T10:37:50.489Z,6.85
2022-12-02T10:40:20.116Z,6.82
2022-12-02T10:42:47.145Z,7.55
2022-12-02T10:45:22.117Z,8.23
2022-12-02T10:47:50.177Z,6.85
2022-12-02T10:50:24.323Z,6.72
2022-12-02T10:52:53.987Z,5.70
2022-12-02T10:55:22.648Z,6.68
2022-12-02T10:57:50.907Z,5.70
2022-12-02T11:00:23.824Z,6.75
2022-12-02T11:02:53.392Z,5.63
2022-12-02T11:31:23.984Z,7.82
2022-12-02T11:33:57.114Z,7.00
2022-12-02T11:36:27.409Z,8.10
2022-12-02T11:38:54.030Z,7.63
2022-12-02T11:41:54.713Z,6.82
2022-12-02T11:44:30.371Z,7.28
2022-12-02T11:47:01.452Z,7.22
2022-12-02T11:49:35.538Z,6.70
2022-12-02T11:52:14.411Z,7.45
2022-12-02T11:54:47.336Z,6.85
2022-12-02T11:57:49.636Z,7.65
2022-12-02T12:00:37.920Z,7.97
2022-12-02T12:03:07.214Z,7.53
2022-12-02T12:05:34.369Z,6.53
2022-12-02T12:08:03.314Z,7.97
2022-12-02T12:10:31.425Z,7.43
2022-12-02T12:13:20.200Z,7.35
2022-12-02T12:16:01.148Z,6.55
2022-12-02T12:18:37.004Z,6.78
2022-12-02T12:21:04.554Z,7.97
2022-12-02T12:23:39.680Z,8.55
2022-12-02T12:26:07.450Z,7.22
2022-12-02T12:28:36.686Z,6.53
2022-12-02T12:31:05.756Z,7.25
2022-12-02T12:33:32.753Z,7.35
2022-12-02T12:36:00.122Z,8.55
2022-12-02T12:38:30.616Z,7.47
2022-12-02T12:40:58.262Z,8.27
2022-12-02T12:43:25.211Z,7.32
2022-12-02T12:45:52.145Z,8.95
2022-12-02T12:48:18.959Z,8.52
2022-12-02T12:50:45.626Z,8.55
2022-12-02T12:53:12.301Z,8.77
2022-12-02T12:55:39.123Z,8.95
2022-12-02T12:58:05.838Z,9.10
2022-12-02T13:00:32.513Z,9.27
2022-12-02T13:02:59.238Z,9.10
2022-12-02T13:05:30.535Z,11.10
2022-12-02T13:07:57.924Z,10.27
2022-12-02T13:10:25.047Z,9.07
2022-12-02T13:12:51.899Z,9.10
2022-12-02T13:15:18.906Z,7.88
2022-12-02T13:17:48.982Z,8.93
2022-12-02T13:20:16.256Z,9.77
2022-12-02T13:22:43.174Z,10.43
2022-12-02T13:25:10.695Z,9.05
2022-12-02T13:27:37.448Z,8.55
2022-12-02T13:30:06.106Z,10.10
2022-12-02T13:32:32.831Z,8.02
2022-12-02T13:34:59.499Z,9.13
2022-12-02T13:37:26.174Z,9.68
2022-12-02T13:39:53.053Z,8.35
2022-12-02T13:42:19.905Z,10.80
2022-12-02T13:44:46.796Z,9.60
2022-12-02T13:47:13.523Z,11.02
2022-12-02T13:49:40.217Z,8.35
2022-12-02T13:52:06.966Z,9.70
2022-12-02T13:54:34.325Z,9.82
2022-12-02T13:57:01.145Z,8.63
2022-12-02T13:59:30.463Z,8.77
2022-12-02T14:01:59.706Z,8.60
2022-12-02T14:04:26.425Z,6.07
2022-12-02T14:06:53.147Z,6.75
2022-12-02T14:09:20.057Z,7.72
2022-12-02T14:11:46.773Z,7.65
2022-12-02T14:14:13.513Z,6.40
2022-12-02T14:16:40.205Z,8.05
2022-12-02T14:19:07.048Z,7.53
2022-12-02T14:21:33.734Z,8.65
2022-12-02T14:24:00.479Z,8.45
2022-12-02T14:26:27.249Z,8.80
2022-12-02T14:28:53.915Z,7.13
2022-12-02T14:31:26.537Z,9.07
2022-12-02T14:36:44.015Z,7.75
2022-12-02T14:39:11.037Z,6.57
2022-12-02T14:41:37.766Z,6.22
2022-12-02T14:44:04.508Z,8.13
2022-12-02T14:46:31.376Z,6.95
2022-12-02T14:49:23.374Z,7.93
2022-12-02T14:51:45.194Z,6.30
2022-12-02T14:54:11.880Z,8.35
2022-12-02T14:56:38.583Z,7.00
2022-12-02T14:59:09.532Z,6.50
2022-12-02T15:01:39.539Z,8.00
2022-12-02T15:04:08.439Z,7.05
2022-12-02T15:06:38.303Z,6.88
2022-12-02T15:09:05.573Z,6.35
2022-12-02T15:11:32.378Z,8.52
2022-12-02T15:13:59.517Z,7.10
2022-12-02T15:16:26.417Z,7.82
2022-12-02T15:18:53.255Z,7.57
2022-12-02T15:21:19.934Z,7.82
2022-12-02T15:23:46.674Z,7.07
2022-12-02T15:26:13.470Z,7.05
2022-12-02T15:28:40.189Z,6.47
2022-12-02T15:31:06.963Z,5.95
2022-12-02T15:33:33.663Z,6.07
2022-12-02T15:36:00.293Z,7.47
2022-12-02T15:38:29.665Z,8.40
2022-12-02T15:40:56.479Z,7.75
2022-12-02T15:43:23.076Z,7.03
2022-12-02T15:46:01.788Z,8.60
2022-12-02T15:48:28.691Z,8.13
2022-12-02T15:50:55.906Z,7.68
2022-12-02T15:53:23.766Z,6.45
2022-12-02T15:55:51.078Z,7.30
2022-12-02T15:58:18.347Z,8.25
2022-12-02T16:00:45.163Z,6.97
2022-12-02T16:03:11.979Z,7.22
2022-12-02T16:05:38.663Z,6.63
2022-12-02T16:08:05.429Z,7.38
2022-12-02T16:10:32.287Z,7.15
2022-12-02T16:12:59.014Z,7.47
2022-12-02T16:15:25.687Z,8.05
2022-12-02T16:17:52.586Z,9.48
2022-12-02T16:20:19.286Z,7.82
2022-12-02T16:22:45.964Z,8.10
2022-12-02T16:25:12.774Z,7.32
2022-12-02T16:27:39.617Z,7.85
2022-12-02T16:30:07.001Z,9.07
2022-12-02T16:32:33.739Z,6.60
2022-12-02T16:35:00.426Z,7.32
2022-12-02T16:37:27.081Z,8.73
2022-12-02T16:39:53.711Z,6.50
2022-12-02T16:42:20.358Z,7.32
2022-12-02T16:44:51.988Z,7.68
2022-12-02T16:47:21.850Z,7.32
2022-12-02T16:49:48.874Z,6.82
2022-12-02T16:52:15.645Z,7.53
2022-12-02T16:54:42.441Z,8.38
2022-12-02T16:57:09.299Z,8.57
2022-12-02T16:59:36.003Z,7.15
2022-12-02T17:02:02.886Z,8.07
2022-12-02T17:04:29.625Z,7.68
2022-12-02T17:06:56.240Z,7.70
2022-12-02T17:09:22.928Z,7.90
2022-12-02T17:11:49.596Z,7.80
2022-12-02T17:14:16.240Z,7.03
2022-12-02T17:16:43.126Z,8.07
2022-12-02T17:19:09.898Z,7.32
2022-12-02T17:21:36.546Z,8.32
2022-12-02T17:24:03.454Z,7.80
2022-12-02T17:26:30.155Z,8.00
2022-12-02T17:28:56.861Z,7.85
2022-12-02T17:31:23.720Z,6.90
2022-12-02T17:33:50.451Z,8.15
2022-12-02T17:36:17.191Z,7.20
2022-12-02T17:38:56.778Z,7.65
2022-12-02T17:41:25.038Z,7.95
2022-12-02T17:43:52.603Z,7.57
2022-12-02T17:46:19.761Z,8.75
2022-12-02T17:48:46.716Z,8.20
2022-12-02T17:51:14.000Z,7.00
2022-12-02T17:53:41.167Z,8.15
2022-12-02T17:56:08.640Z,8.15
2022-12-02T17:58:35.761Z,7.20
2022-12-02T18:01:09.571Z,7.15
2022-12-02T18:03:38.342Z,8.32
2022-12-02T18:06:06.202Z,8.95
2022-12-02T18:08:33.348Z,9.60
2022-12-02T18:11:00.100Z,8.90
2022-12-02T18:13:26.803Z,9.80
2022-12-02T18:15:53.497Z,6.72
2022-12-02T18:18:20.192Z,9.43
2022-12-02T18:20:46.925Z,9.05
2022-12-02T18:23:13.579Z,9.43
2022-12-02T18:25:40.184Z,7.75
2022-12-02T18:28:06.902Z,8.43
2022-12-02T18:30:33.643Z,8.80
2022-12-02T18:33:00.396Z,8.60
2022-12-02T18:35:28.191Z,9.55
2022-12-02T18:37:55.017Z,9.43
2022-12-02T18:40:22.029Z,7.95
2022-12-02T18:42:48.700Z,9.60
2022-12-02T18:45:15.709Z,8.35
2022-12-02T18:47:42.483Z,8.05
2022-12-02T18:50:10.202Z,9.98
2022-12-02T18:52:36.934Z,9.18
2022-12-02T18:55:04.317Z,9.65
2022-12-02T18:57:31.008Z,11.70
2022-12-02T18:59:57.656Z,7.95
2022-12-02T19:02:24.777Z,10.45
2022-12-02T19:04:51.871Z,10.55
2022-12-02T19:07:19.429Z,10.82
2022-12-02T19:09:51.625Z,9.70
2022-12-02T19:12:20.013Z,8.63
2022-12-02T19:14:46.729Z,9.95
2022-12-02T19:17:13.420Z,9.60
2022-12-02T19:19:40.031Z,10.85
2022-12-02T19:22:06.685Z,9.88
2022-12-02T19:24:33.334Z,9.73
2022-12-02T19:27:00.006Z,10.70
2022-12-02T19:29:26.725Z,8.88
2022-12-02T19:31:53.445Z,10.23
2022-12-02T19:34:22.034Z,10.65
2022-12-02T19:36:48.655Z,10.55
2022-12-02T19:39:15.938Z,9.82
2022-12-02T19:41:43.045Z,10.10
2022-12-02T19:44:09.711Z,8.02
2022-12-02T19:46:36.696Z,9.27
2022-12-02T19:49:03.641Z,8.55
2022-12-02T19:51:30.435Z,9.80
2022-12-02T19:53:58.619Z,8.98
2022-12-02T19:56:25.755Z,9.43
2022-12-02T19:58:52.478Z,9.07
2022-12-02T20:01:19.189Z,8.93
2022-12-02T20:03:45.934Z,7.88
2022-12-02T20:06:12.717Z,7.90
2022-12-02T20:08:39.376Z,8.70
2022-12-02T20:11:06.054Z,8.10
2022-12-02T20:13:32.666Z,7.75
2022-12-02T20:15:59.532Z,8.30
2022-12-02T20:18:26.588Z,8.85
2022-12-02T20:20:53.293Z,8.07
2022-12-02T20:23:20.001Z,8.40
2022-12-02T20:25:46.676Z,7.03
2022-12-02T20:28:14.064Z,8.90
2022-12-02T20:30:41.308Z,9.15
2022-12-02T20:33:08.045Z,9.30
2022-12-02T20:35:34.829Z,7.53
2022-12-02T20:38:01.888Z,6.57
2022-12-02T20:40:29.139Z,6.65
2022-12-02T20:43:00.311Z,8.38
2022-12-02T20:45:33.330Z,7.43
2022-12-02T20:48:06.213Z,7.40
2022-12-02T20:50:32.867Z,7.88
2022-12-02T20:52:59.526Z,8.55
2022-12-02T20:55:26.239Z,7.28
2022-12-02T20:57:52.913Z,7.85
2022-12-02T21:00:19.733Z,6.22
2022-12-02T21:02:46.534Z,8.55
2022-12-02T21:05:13.321Z,7.97
2022-12-02T21:07:40.066Z,7.80
2022-12-02T21:10:07.593Z,8.07
2022-12-02T21:12:34.693Z,7.15
2022-12-02T21:15:01.670Z,9.68
2022-12-02T21:17:30.323Z,6.95
2022-12-02T21:19:57.523Z,6.80
2022-12-02T21:22:24.526Z,7.97
2022-12-02T21:24:51.601Z,7.35
2022-12-02T21:27:19.086Z,6.80
2022-12-02T21:29:45.751Z,6.70
2022-12-02T21:32:12.502Z,6.40
2022-12-02T21:34:39.172Z,7.75
2022-12-02T21:37:05.913Z,6.78
2022-12-02T21:39:32.736Z,6.55
2022-12-02T21:41:59.459Z,7.32
2022-12-02T21:44:26.168Z,6.55
2022-12-02T21:46:55.731Z,7.07
2022-12-02T21:49:22.459Z,8.20
2022-12-02T21:51:49.701Z,6.90
2022-12-02T21:54:16.713Z,7.15
2022-12-02T21:56:46.181Z,8.68
2022-12-02T21:59:12.959Z,5.32
2022-12-02T22:01:41.131Z,5.80
2022-12-02T22:04:10.630Z,6.70
2022-12-02T22:06:37.345Z,7.00
2022-12-02T22:09:04.718Z,7.40
2022-12-02T22:11:31.569Z,6.47
2022-12-02T22:13:58.307Z,5.93
2022-12-02T22:16:25.181Z,5.97
2022-12-02T22:18:52.863Z,6.13
2022-12-02T22:21:19.779Z,5.65
2022-12-02T22:23:46.456Z,6.70
2022-12-02T22:26:18.140Z,6.35
2022-12-02T22:28:46.548Z,5.55
2022-12-02T22:31:13.252Z,6.15
2022-12-02T22:33:40.028Z,6.68
2022-12-02T22:36:06.960Z,6.93
2022-12-02T22:38:33.782Z,6.55
2022-12-02T22:41:00.419Z,6.18
2022-12-02T22:43:27.040Z,6.85
2022-12-02T22:45:55.109Z,5.38
2022-12-02T22:48:21.854Z,6.18
2022-12-02T22:50:48.542Z,6.88
2022-12-02T22:53:15.265Z,6.25
2022-12-02T22:55:41.954Z,5.88
2022-12-02T22:58:08.595Z,5.80
2022-12-02T23:00:35.190Z,5.88
2022-12-02T23:03:01.752Z,5.03
2022-12-02T23:05:28.432Z,6.43
2022-12-02T23:07:55.238Z,7.22
2022-12-02T23:10:21.962Z,6.97
2022-12-02T23:12:48.594Z,7.75
2022-12-02T23:18:02.148Z,6.35
2022-12-02T23:20:28.761Z,5.95
2022-12-02T23:22:55.513Z,6.18
2022-12-02T23:25:22.227Z,6.30
2022-12-02T23:27:48.884Z,5.97
2022-12-02T23:30:15.611Z,5.90
2022-12-02T23:32:42.415Z,6.10
2022-12-02T23:35:09.274Z,5.75
2022-12-02T23:37:38.576Z,5.68
2022-12-02T23:40:06.044Z,8.30
2022-12-02T23:42:37.866Z,4.82
2022-12-02T23:45:06.148Z,6.55
2022-12-02T23:47:32.953Z,7.13
2022-12-02T23:49:59.600Z,7.22
2022-12-02T23:52:26.282Z,5.65
2022-12-02T23:54:53.197Z,7.13
2022-12-02T23:57:20.063Z,5.88
2022-12-02T23:59:46.737Z,4.47
